Aviation Digital Data Service (ADDS)

Output produced by METARs form (1649 UTC 24 August 2019)
found at http://www.aviationweather.gov/metar/data/
 
Forecast for: RJOA (NEW HIROSHIMA , JP)
Text: TAF RJOA 241107Z 2412/2518 28005KT 8000 -RA FEW008 BKN025
Forecast period: 1200 UTC 24 August 2019 to 1800 UTC 25 August 2019
Forecast type: FROM: standard forecast or significant change
Winds: from the W (280 degrees) at 6 MPH (5 knots; 2.6 m/s)
Visibility: 5 miles (8 km)
Ceiling: 2500 feet AGL
Clouds: few clouds at 800 feet AGL
broken clouds at 2500 feet AGL
Weather: -RA  (light rain)
Text: TEMPO 2412/2414 4000 -RA BR FEW001 BKN007
Forecast period: 1200 to 1400 UTC 24 August 2019
Forecast type: TEMPORARY: The following changes expected for less than half the time period
Visibility: 2.49 miles (4.01 km)
Ceiling: 700 feet AGL
Clouds: few clouds at 100 feet AGL
broken clouds at 700 feet AGL
Weather: -RA BR  (light rain, mist)
Text: TEMPO 2420/2500 3000 BR BCFG FEW000 BKN007
Forecast period: 2000 UTC 24 August 2019 to 0000 UTC 25 August 2019
Forecast type: TEMPORARY: The following changes expected for less than half the time period
Visibility: 1.86 miles (2.99 km)
Ceiling: 700 feet AGL
Clouds: few clouds at 0 feet AGL
broken clouds at 700 feet AGL
Weather: BR BCFG  (mist, patches of fog)